Time;durP1;ratioP1;P1;durP2;ratioP2;P2;SDS_P1;SDS_P2;PMS_P1;PMS_P2;Temp;Humidity;BMP_temperature;BMP_pressure;BME280_temperature;BME280_humidity;BME280_pressure;Samples;Min_cycle;Max_cycle;Signal;HPM_P1;HPM_P2
2021/01/13 00:01:04;;;;;;;7.45;2.90;;;3.90;99.90;;;;;;5104071;28;20129;-72
2021/01/13 00:03:32;;;;;;;6.45;2.88;;;3.50;99.90;;;;;;5103895;28;20402;-74
2021/01/13 00:05:58;;;;;;;7.43;2.72;;;3.60;99.90;;;;;;5102682;28;20128;-74
2021/01/13 00:08:25;;;;;;;14.07;3.60;;;3.50;99.90;;;;;;5105323;28;20071;-73
2021/01/13 00:10:52;;;;;;;9.88;3.13;;;3.50;99.90;;;;;;5101148;28;20051;-74
2021/01/13 00:13:18;;;;;;;18.65;8.10;;;3.60;99.90;;;;;;5101722;28;20043;-78
2021/01/13 00:15:45;;;;;;;10.80;4.13;;;3.60;99.90;;;;;;5102502;28;20052;-74
2021/01/13 00:18:11;;;;;;;10.00;3.53;;;3.60;99.90;;;;;;5101663;28;20151;-74
2021/01/13 00:20:38;;;;;;;12.88;3.53;;;3.40;99.90;;;;;;5101757;28;20140;-73
2021/01/13 00:23:04;;;;;;;8.15;3.17;;;3.70;99.90;;;;;;5102858;28;20082;-72
2021/01/13 00:25:31;;;;;;;9.02;3.88;;;3.40;99.90;;;;;;5107032;27;20101;-73
2021/01/13 00:27:57;;;;;;;8.50;3.45;;;3.70;99.90;;;;;;5105949;28;20130;-74
2021/01/13 00:30:23;;;;;;;8.73;3.05;;;3.50;99.90;;;;;;5107861;28;20047;-74
2021/01/13 00:32:50;;;;;;;9.00;3.22;;;3.40;99.90;;;;;;5105072;28;20044;-74
2021/01/13 00:35:17;;;;;;;7.35;2.85;;;3.20;99.90;;;;;;5097921;28;20048;-73
2021/01/13 00:37:44;;;;;;;10.55;4.13;;;3.40;99.90;;;;;;5097678;28;20050;-72
2021/01/13 00:40:11;;;;;;;11.15;4.00;;;3.50;99.90;;;;;;5087856;28;20108;-72
2021/01/13 00:42:49;;;;;;;7.45;3.40;;;3.60;99.90;;;;;;5097727;28;20062;-74
2021/01/13 00:45:17;;;;;;;7.78;3.13;;;3.40;99.90;;;;;;5105934;28;20044;-73
2021/01/13 00:47:51;;;;;;;11.77;4.05;;;3.50;99.90;;;;;;5099870;28;20453;-73
2021/01/13 00:50:18;;;;;;;9.88;3.60;;;3.50;99.90;;;;;;5103525;28;20501;-73
2021/01/13 00:52:49;;;;;;;10.02;3.47;;;3.40;99.90;;;;;;5102554;28;20432;-73
2021/01/13 00:55:15;;;;;;;12.43;3.75;;;3.50;99.90;;;;;;5105976;28;20391;-73
2021/01/13 00:57:44;;;;;;;12.38;3.75;;;3.40;99.90;;;;;;5102447;28;20126;-74
2021/01/13 01:00:11;;;;;;;10.00;3.63;;;3.60;99.90;;;;;;5100572;28;20044;-74
2021/01/13 01:02:38;;;;;;;10.23;3.40;;;3.50;99.90;;;;;;5105070;28;20887;-74
2021/01/13 01:05:04;;;;;;;10.27;3.58;;;3.60;99.90;;;;;;5102841;28;20051;-74
2021/01/13 01:07:31;;;;;;;8.77;2.92;;;3.30;99.90;;;;;;5104960;28;20563;-73
2021/01/13 01:09:57;;;;;;;6.80;2.92;;;3.30;99.90;;;;;;5105138;28;20394;-73
2021/01/13 01:12:24;;;;;;;8.43;3.13;;;3.40;99.90;;;;;;5102473;28;20046;-74
2021/01/13 01:14:51;;;;;;;8.18;3.22;;;3.40;99.90;;;;;;5103801;28;20495;-73
2021/01/13 01:17:17;;;;;;;11.27;2.97;;;3.20;99.90;;;;;;5097953;28;20475;-73
2021/01/13 01:19:43;;;;;;;11.77;3.45;;;3.20;99.90;;;;;;5103978;28;20071;-73
2021/01/13 01:22:10;;;;;;;7.97;3.00;;;3.20;99.90;;;;;;5105960;28;20441;-73
2021/01/13 01:24:36;;;;;;;13.13;2.90;;;3.20;99.90;;;;;;5108826;28;20082;-74
2021/01/13 01:27:02;;;;;;;11.18;3.63;;;3.40;99.90;;;;;;5095748;28;20040;-73
2021/01/13 01:29:29;;;;;;;9.43;3.13;;;3.10;99.90;;;;;;5104940;28;20079;-74
2021/01/13 01:31:55;;;;;;;8.25;3.25;;;3.20;99.90;;;;;;5099892;28;20068;-74
2021/01/13 01:34:22;;;;;;;9.38;3.00;;;3.20;99.90;;;;;;5110718;28;20047;-74
2021/01/13 01:36:53;;;;;;;13.02;3.72;;;3.20;99.90;;;;;;5106144;28;20383;-73
2021/01/13 01:39:19;;;;;;;8.18;2.78;;;3.00;99.90;;;;;;5107735;28;20459;-73
2021/01/13 01:41:46;;;;;;;14.18;2.97;;;2.90;99.90;;;;;;5110734;28;20340;-74
2021/01/13 01:44:12;;;;;;;11.45;3.15;;;2.90;99.90;;;;;;5103675;28;20422;-74
2021/01/13 01:46:40;;;;;;;12.38;2.97;;;3.00;99.90;;;;;;5108659;28;20114;-73
2021/01/13 01:49:12;;;;;;;6.75;2.83;;;3.10;99.90;;;;;;5109144;28;20092;-74
2021/01/13 01:51:53;;;;;;;13.05;3.45;;;3.30;99.90;;;;;;5103299;28;20082;-73
2021/01/13 01:54:26;;;;;;;7.70;3.10;;;2.90;99.90;;;;;;5109642;28;20777;-74
2021/01/13 01:56:54;;;;;;;7.28;3.15;;;3.10;99.90;;;;;;5108666;28;20096;-74
2021/01/13 01:59:47;;;;;;;7.82;3.05;;;3.00;99.90;;;;;;5106368;28;20514;-75
2021/01/13 02:02:16;;;;;;;7.07;3.28;;;3.30;99.90;;;;;;5108877;28;20071;-74
2021/01/13 02:04:44;;;;;;;9.45;3.20;;;3.10;99.90;;;;;;5106622;28;20056;-74
2021/01/13 02:07:13;;;;;;;12.13;2.97;;;3.20;99.90;;;;;;5101822;28;20486;-74
2021/01/13 02:09:40;;;;;;;9.25;3.35;;;3.10;99.90;;;;;;5098264;28;20104;-74
2021/01/13 02:12:12;;;;;;;8.55;3.30;;;3.00;99.90;;;;;;5105478;28;20134;-74
2021/01/13 02:14:41;;;;;;;16.45;3.55;;;2.90;99.90;;;;;;5099462;28;21077;-74
2021/01/13 02:17:11;;;;;;;11.63;3.30;;;2.70;99.90;;;;;;5110217;28;20079;-70
2021/01/13 02:19:46;;;;;;;10.32;4.38;;;2.60;99.90;;;;;;5107172;28;20051;-74
2021/01/13 02:22:26;;;;;;;7.30;4.03;;;2.70;99.90;;;;;;5110449;28;20060;-74
2021/01/13 02:25:15;;;;;;;11.32;4.32;;;2.80;99.90;;;;;;5103320;28;20127;-74
2021/01/13 02:28:06;;;;;;;12.80;4.20;;;2.90;99.90;;;;;;5104426;28;20043;-75
2021/01/13 02:30:43;;;;;;;9.43;3.85;;;2.70;99.90;;;;;;5105986;27;20495;-74
2021/01/13 02:33:37;;;;;;;9.88;4.47;;;2.70;99.90;;;;;;5107358;28;20478;-73
2021/01/13 02:36:20;;;;;;;9.63;3.83;;;2.80;99.90;;;;;;5101596;28;20122;-73
2021/01/13 02:38:52;;;;;;;11.30;4.35;;;3.00;99.90;;;;;;5109079;28;20532;-75
2021/01/13 02:41:26;;;;;;;10.60;4.18;;;2.70;99.90;;;;;;5110888;28;20056;-75
2021/01/13 02:44:04;;;;;;;12.60;4.22;;;2.70;99.90;;;;;;5109878;28;20252;-74
2021/01/13 02:46:50;;;;;;;13.55;4.60;;;2.70;99.90;;;;;;5108236;28;20134;-74
2021/01/13 02:50:12;;;;;;;9.30;4.07;;;2.90;99.90;;;;;;5108772;28;20097;-74
2021/01/13 02:53:05;;;;;;;11.07;3.65;;;2.60;99.90;;;;;;5113019;28;20455;-74
2021/01/13 02:55:36;;;;;;;16.08;3.38;;;2.50;99.90;;;;;;5113253;28;20117;-75
2021/01/13 02:58:08;;;;;;;9.35;3.30;;;2.40;99.90;;;;;;5104285;27;20088;-74
2021/01/13 03:00:36;;;;;;;8.45;3.85;;;2.80;99.90;;;;;;5101582;28;20070;-75
2021/01/13 03:03:04;;;;;;;10.07;3.50;;;2.40;99.90;;;;;;5106441;28;20052;-75
2021/01/13 03:05:31;;;;;;;6.80;2.72;;;2.70;99.90;;;;;;5105145;27;20483;-75
2021/01/13 03:07:58;;;;;;;8.00;3.65;;;2.40;99.90;;;;;;5109161;28;20459;-72
2021/01/13 03:10:28;;;;;;;6.60;2.97;;;2.70;99.90;;;;;;5109893;28;20048;-74
2021/01/13 03:13:03;;;;;;;8.82;3.25;;;2.60;99.90;;;;;;5110912;28;20078;-75
2021/01/13 03:15:31;;;;;;;4.75;2.95;;;2.60;99.90;;;;;;5108553;27;20083;-75
2021/01/13 03:18:28;;;;;;;11.05;2.47;;;2.60;99.90;;;;;;5102390;28;20044;-74
2021/01/13 03:21:04;;;;;;;5.70;2.75;;;2.80;99.90;;;;;;5102557;28;20092;-75
2021/01/13 03:23:52;;;;;;;9.05;2.72;;;2.80;99.90;;;;;;5109479;28;20070;-74
2021/01/13 03:26:30;;;;;;;6.50;2.42;;;2.60;99.90;;;;;;5112664;28;20551;-74
2021/01/13 03:28:58;;;;;;;7.13;2.50;;;2.70;99.90;;;;;;5107597;28;20112;-74
2021/01/13 03:31:31;;;;;;;7.97;2.72;;;2.60;99.90;;;;;;5105576;28;20044;-72
2021/01/13 03:34:29;;;;;;;2.95;2.10;;;2.70;99.90;;;;;;5107903;28;20447;-73
2021/01/13 03:37:27;;;;;;;7.68;2.13;;;2.80;99.90;;;;;;5111206;28;20470;-75
2021/01/13 03:39:56;;;;;;;9.13;2.50;;;2.80;99.90;;;;;;5106001;28;20574;-74
2021/01/13 03:42:23;;;;;;;7.85;2.90;;;2.60;99.90;;;;;;5111472;28;20083;-75
2021/01/13 03:44:49;;;;;;;8.70;2.33;;;2.40;99.90;;;;;;5109214;27;20072;-75
2021/01/13 03:47:16;;;;;;;6.57;2.38;;;2.60;99.90;;;;;;5109287;28;20101;-74
2021/01/13 03:50:12;;;;;;;9.35;3.10;;;2.50;99.90;;;;;;5107746;28;20047;-74
2021/01/13 03:53:06;;;;;;;13.18;4.00;;;2.40;99.90;;;;;;5093384;28;20097;-74
2021/01/13 03:55:34;;;;;;;14.63;4.40;;;2.30;99.90;;;;;;5099962;27;20171;-73
2021/01/13 03:58:38;;;;;;;10.27;4.03;;;2.20;99.90;;;;;;5105143;28;20487;-74
2021/01/13 04:01:19;;;;;;;12.13;3.30;;;2.30;99.90;;;;;;5101524;28;20123;-74
2021/01/13 04:03:52;;;;;;;9.63;3.38;;;2.30;99.90;;;;;;5106469;28;20376;-74
2021/01/13 04:06:19;;;;;;;11.60;3.15;;;2.30;99.90;;;;;;5110249;28;20100;-74
2021/01/13 04:08:46;;;;;;;7.85;3.40;;;2.30;99.90;;;;;;5105763;28;20963;-74
2021/01/13 04:11:21;;;;;;;9.70;3.13;;;2.20;99.90;;;;;;5101978;28;20555;-73
2021/01/13 04:13:50;;;;;;;11.82;3.42;;;2.20;99.90;;;;;;5106898;28;20454;-74
2021/01/13 04:16:21;;;;;;;10.27;3.53;;;2.20;99.90;;;;;;5107035;28;20167;-75
2021/01/13 04:18:50;;;;;;;6.65;2.88;;;2.10;99.90;;;;;;5109109;28;20046;-74
2021/01/13 04:21:18;;;;;;;9.30;2.90;;;2.10;99.90;;;;;;5106997;28;20048;-74
2021/01/13 04:23:47;;;;;;;7.97;3.65;;;2.10;99.90;;;;;;5111287;28;20052;-75
2021/01/13 04:26:14;;;;;;;10.15;3.30;;;2.10;99.90;;;;;;5107793;28;20086;-76
2021/01/13 04:28:41;;;;;;;9.38;2.80;;;2.30;99.90;;;;;;5107731;28;20149;-74
2021/01/13 04:31:08;;;;;;;11.18;3.30;;;1.90;99.90;;;;;;5106051;28;20086;-74
2021/01/13 04:33:35;;;;;;;8.48;2.35;;;2.10;99.90;;;;;;5108600;28;20044;-74
2021/01/13 04:36:03;;;;;;;5.88;2.78;;;2.30;99.90;;;;;;5103275;28;20079;-74
2021/01/13 04:38:32;;;;;;;5.90;2.30;;;2.30;99.90;;;;;;5111767;28;20526;-76
2021/01/13 04:41:08;;;;;;;7.00;2.10;;;2.10;99.90;;;;;;5105377;28;20075;-75
2021/01/13 04:43:49;;;;;;;7.20;2.63;;;2.10;99.90;;;;;;5106237;28;20101;-75
2021/01/13 04:46:28;;;;;;;8.27;2.08;;;2.30;99.90;;;;;;5101949;28;20047;-74
2021/01/13 04:49:17;;;;;;;7.95;2.30;;;2.30;99.90;;;;;;5109979;28;20048;-75
2021/01/13 04:51:46;;;;;;;7.60;2.38;;;2.40;99.90;;;;;;5105716;28;20043;-76
2021/01/13 04:54:17;;;;;;;7.88;2.53;;;2.20;99.90;;;;;;5105051;28;21158;-74
2021/01/13 04:57:12;;;;;;;7.32;1.98;;;2.30;99.90;;;;;;5109325;28;20071;-74
2021/01/13 05:00:07;;;;;;;9.73;2.00;;;2.20;99.90;;;;;;5107295;28;20043;-75
2021/01/13 05:02:39;;;;;;;4.70;1.75;;;2.30;99.90;;;;;;5108610;28;20346;-75
2021/01/13 05:05:07;;;;;;;3.67;1.92;;;2.20;99.90;;;;;;5109863;28;20040;-75
2021/01/13 05:07:38;;;;;;;4.72;1.80;;;2.40;99.90;;;;;;5108203;28;20043;-73
2021/01/13 05:10:07;;;;;;;5.38;1.70;;;2.50;99.90;;;;;;5100085;28;20106;-75
2021/01/13 05:12:51;;;;;;;6.50;2.28;;;2.50;99.90;;;;;;5111738;28;20123;-75
2021/01/13 05:15:29;;;;;;;5.53;1.80;;;2.50;99.90;;;;;;5108215;28;20120;-75
2021/01/13 05:17:59;;;;;;;7.05;2.28;;;2.50;99.90;;;;;;5105579;28;20543;-75
2021/01/13 05:20:30;;;;;;;8.90;3.00;;;2.40;99.90;;;;;;5105994;28;20052;-75
2021/01/13 05:23:00;;;;;;;3.65;1.75;;;2.40;99.90;;;;;;5109853;28;20403;-75
2021/01/13 05:25:38;;;;;;;5.47;2.80;;;2.20;99.90;;;;;;5106310;28;20101;-75
2021/01/13 05:28:07;;;;;;;9.98;2.20;;;2.20;99.90;;;;;;5106307;28;20124;-75
2021/01/13 05:30:39;;;;;;;9.23;2.13;;;2.50;99.90;;;;;;5108227;28;20040;-75
2021/01/13 05:33:08;;;;;;;5.10;2.35;;;2.50;99.90;;;;;;5100308;28;20044;-74
2021/01/13 05:35:36;;;;;;;7.72;2.22;;;2.40;99.90;;;;;;5110923;28;20047;-74
2021/01/13 05:38:05;;;;;;;7.38;2.25;;;2.50;99.90;;;;;;5106332;28;20123;-74
2021/01/13 05:40:38;;;;;;;9.25;1.98;;;2.50;99.90;;;;;;5108085;28;20429;-76
2021/01/13 05:43:06;;;;;;;4.47;2.15;;;2.50;99.90;;;;;;5110477;28;20471;-74
2021/01/13 05:45:38;;;;;;;10.40;2.60;;;2.50;99.90;;;;;;5103008;28;20539;-75
2021/01/13 05:48:22;;;;;;;3.75;1.77;;;2.40;99.90;;;;;;5105885;28;20044;-75
2021/01/13 05:50:52;;;;;;;8.38;1.77;;;2.40;99.90;;;;;;5111243;28;20077;-74
2021/01/13 05:53:19;;;;;;;4.15;2.15;;;2.40;99.90;;;;;;5110891;27;20075;-75
2021/01/13 05:55:47;;;;;;;7.45;2.42;;;2.30;99.90;;;;;;5109886;28;20105;-74
2021/01/13 05:58:14;;;;;;;7.25;2.00;;;2.30;99.90;;;;;;5113093;28;20121;-75
2021/01/13 06:00:41;;;;;;;10.18;2.22;;;2.50;99.90;;;;;;5106702;27;20050;-72
2021/01/13 06:03:11;;;;;;;7.22;2.20;;;2.40;99.90;;;;;;5100268;27;20101;-74
2021/01/13 06:05:50;;;;;;;6.38;2.30;;;2.40;99.90;;;;;;5112002;28;20123;-75
2021/01/13 06:08:16;;;;;;;7.07;2.10;;;2.40;99.90;;;;;;5104541;28;20204;-73
2021/01/13 06:10:44;;;;;;;10.73;2.08;;;2.30;99.90;;;;;;5115244;28;20420;-73
2021/01/13 06:13:16;;;;;;;6.47;2.13;;;2.30;99.90;;;;;;5109289;28;20097;-75
2021/01/13 06:15:44;;;;;;;6.97;2.40;;;2.50;99.90;;;;;;5110855;27;20128;-75
2021/01/13 06:18:20;;;;;;;8.98;2.47;;;2.50;99.90;;;;;;5113280;28;20089;-74
2021/01/13 06:20:46;;;;;;;12.73;3.30;;;2.30;99.90;;;;;;5111640;28;20455;-74
2021/01/13 06:23:15;;;;;;;12.70;2.72;;;2.30;99.90;;;;;;5109549;28;20118;-74
2021/01/13 06:25:43;;;;;;;7.07;2.88;;;1.90;99.90;;;;;;5112537;28;20127;-74
2021/01/13 06:28:39;;;;;;;7.97;2.97;;;2.10;99.90;;;;;;5109844;28;20463;-75
2021/01/13 06:31:09;;;;;;;8.73;3.50;;;1.80;99.90;;;;;;5111746;27;20036;-75
2021/01/13 06:33:59;;;;;;;7.88;3.80;;;1.80;99.90;;;;;;5106630;28;20046;-75
2021/01/13 06:36:31;;;;;;;9.50;3.22;;;1.80;99.90;;;;;;5102354;28;20079;-75
2021/01/13 06:39:04;;;;;;;12.23;4.00;;;1.60;99.90;;;;;;5109944;28;20427;-75
2021/01/13 06:41:44;;;;;;;8.15;3.72;;;1.70;99.90;;;;;;5109185;28;20391;-75
2021/01/13 06:44:10;;;;;;;6.72;3.60;;;1.50;99.90;;;;;;5107018;28;20047;-75
2021/01/13 06:46:36;;;;;;;10.52;3.45;;;1.60;99.90;;;;;;5106467;28;20109;-75
2021/01/13 06:49:16;;;;;;;11.52;4.07;;;1.50;99.90;;;;;;5112834;28;20474;-75
2021/01/13 06:51:52;;;;;;;11.65;4.03;;;1.40;99.90;;;;;;5110907;27;20135;-74
2021/01/13 06:54:20;;;;;;;10.75;3.78;;;1.50;99.90;;;;;;5104624;28;20131;-76
2021/01/13 06:56:46;;;;;;;8.68;4.18;;;1.50;99.90;;;;;;5114684;28;20180;-75
2021/01/13 06:59:13;;;;;;;13.35;4.20;;;1.70;99.90;;;;;;5108269;28;20089;-75
2021/01/13 07:01:49;;;;;;;11.43;4.47;;;1.50;99.90;;;;;;5098196;27;20139;-76
2021/01/13 07:04:15;;;;;;;16.83;4.38;;;1.40;99.90;;;;;;5111122;28;20512;-74
2021/01/13 07:07:05;;;;;;;15.63;4.28;;;1.80;99.90;;;;;;5111124;28;20487;-76
2021/01/13 07:09:36;;;;;;;9.32;3.75;;;1.70;99.90;;;;;;5108178;28;20047;-74
2021/01/13 07:12:07;;;;;;;9.80;3.70;;;1.70;99.90;;;;;;5110081;28;20063;-75
2021/01/13 07:14:39;;;;;;;9.85;3.60;;;1.90;99.90;;;;;;5111053;28;20051;-74
2021/01/13 07:17:13;;;;;;;8.73;4.13;;;1.70;99.90;;;;;;5108797;28;20051;-75
2021/01/13 07:19:45;;;;;;;12.32;4.32;;;1.80;99.90;;;;;;5108087;28;20056;-75
2021/01/13 07:22:13;;;;;;;8.50;3.97;;;1.80;99.90;;;;;;5110165;27;20465;-75
2021/01/13 07:24:42;;;;;;;11.25;3.63;;;1.80;99.90;;;;;;5107537;28;20401;-74
2021/01/13 07:27:10;;;;;;;8.45;3.53;;;2.10;99.90;;;;;;5110350;28;20052;-74
2021/01/13 07:29:37;;;;;;;11.52;3.65;;;1.70;99.90;;;;;;5109031;28;20075;-74
2021/01/13 07:32:05;;;;;;;13.95;4.80;;;1.70;99.90;;;;;;5107304;28;20039;-73
2021/01/13 07:34:38;;;;;;;15.07;4.63;;;1.80;99.90;;;;;;5109793;28;20092;-75
2021/01/13 07:37:11;;;;;;;9.18;4.18;;;1.90;99.90;;;;;;5108900;28;20146;-74
2021/01/13 07:39:59;;;;;;;12.93;4.30;;;2.30;99.90;;;;;;5098675;28;20074;-74
2021/01/13 07:42:39;;;;;;;13.00;3.95;;;2.00;99.90;;;;;;5112247;28;20055;-75
2021/01/13 07:45:14;;;;;;;12.57;3.78;;;2.10;99.90;;;;;;5107872;28;20051;-73
2021/01/13 07:48:03;;;;;;;10.85;4.07;;;1.90;99.90;;;;;;5108020;28;20070;-74
2021/01/13 07:50:33;;;;;;;9.38;3.55;;;1.90;99.90;;;;;;5112400;28;20527;-74
2021/01/13 07:53:06;;;;;;;14.25;4.10;;;2.00;99.90;;;;;;5107513;28;20470;-75
2021/01/13 07:55:34;;;;;;;11.55;3.85;;;2.00;99.90;;;;;;5107333;27;20360;-74
2021/01/13 07:58:01;;;;;;;11.40;3.67;;;2.20;99.90;;;;;;5104800;28;20113;-75
2021/01/13 08:00:35;;;;;;;9.55;3.50;;;2.30;99.90;;;;;;5107336;28;20499;-72
2021/01/13 08:03:39;;;;;;;11.52;3.47;;;2.20;99.90;;;;;;5104417;28;20093;-75
2021/01/13 08:06:29;;;;;;;7.07;3.10;;;2.20;99.90;;;;;;5123659;27;20067;-73
2021/01/13 08:09:12;;;;;;;7.35;3.03;;;2.20;99.90;;;;;;5105352;28;20104;-73
2021/01/13 08:12:03;;;;;;;6.75;3.13;;;2.40;99.90;;;;;;5101987;28;20047;-74
2021/01/13 08:14:47;;;;;;;12.35;3.25;;;2.40;99.90;;;;;;5111982;28;20044;-74
2021/01/13 08:17:44;;;;;;;8.52;3.47;;;2.50;99.90;;;;;;5107674;28;20044;-74
2021/01/13 08:20:30;;;;;;;9.45;2.42;;;2.50;99.90;;;;;;5105216;28;20075;-74
2021/01/13 08:23:13;;;;;;;10.93;3.40;;;2.50;99.90;;;;;;5108320;28;20444;-73
2021/01/13 08:25:45;;;;;;;10.30;3.35;;;2.40;99.90;;;;;;5109112;27;20075;-75
2021/01/13 08:28:13;;;;;;;6.85;3.15;;;2.80;99.90;;;;;;5106592;28;20055;-74
2021/01/13 08:30:47;;;;;;;7.55;2.90;;;2.60;99.90;;;;;;5107132;28;20070;-74
2021/01/13 08:33:25;;;;;;;10.15;3.00;;;2.60;99.90;;;;;;5109605;28;20043;-74
2021/01/13 08:35:58;;;;;;;8.85;3.08;;;2.60;99.90;;;;;;5108323;28;20079;-74
2021/01/13 08:38:26;;;;;;;9.15;3.58;;;2.60;99.90;;;;;;5104455;28;21415;-73
2021/01/13 08:40:54;;;;;;;8.30;2.53;;;2.70;99.90;;;;;;5109777;28;20043;-73
2021/01/13 08:43:22;;;;;;;12.18;3.25;;;2.50;99.90;;;;;;5105096;28;20407;-74
2021/01/13 08:45:53;;;;;;;11.00;3.22;;;2.60;99.90;;;;;;5105982;28;20560;-74
2021/01/13 08:48:22;;;;;;;7.68;2.97;;;2.60;99.90;;;;;;5109143;28;20047;-74
2021/01/13 08:51:03;;;;;;;11.10;3.05;;;2.80;99.90;;;;;;5106988;28;20104;-73
2021/01/13 08:53:30;;;;;;;9.45;3.35;;;2.60;99.90;;;;;;5104022;28;20094;-74
2021/01/13 08:55:58;;;;;;;9.98;3.13;;;2.40;99.90;;;;;;5100011;28;20043;-73
2021/01/13 08:58:32;;;;;;;11.88;2.95;;;2.50;99.90;;;;;;5103654;28;20048;-74
2021/01/13 09:01:09;;;;;;;10.98;2.90;;;2.60;99.90;;;;;;5102113;27;20063;-74
2021/01/13 09:03:37;;;;;;;9.82;3.15;;;2.90;99.90;;;;;;5103701;28;20048;-74
2021/01/13 09:06:22;;;;;;;7.07;3.42;;;2.90;99.90;;;;;;5106475;28;20052;-75
2021/01/13 09:08:53;;;;;;;14.80;4.47;;;2.70;99.90;;;;;;5101492;28;20455;-74
2021/01/13 09:11:30;;;;;;;9.48;2.92;;;2.70;99.90;;;;;;5104800;28;20074;-71
2021/01/13 09:14:22;;;;;;;8.80;3.00;;;2.70;99.90;;;;;;5102820;28;20087;-75
2021/01/13 09:16:55;;;;;;;13.02;3.35;;;3.20;99.90;;;;;;5107636;28;20085;-74
2021/01/13 09:19:34;;;;;;;10.77;3.25;;;3.80;99.90;;;;;;5093514;28;20123;-74
2021/01/13 09:22:03;;;;;;;8.73;3.60;;;3.70;99.90;;;;;;5100658;28;20449;-74
2021/01/13 09:24:38;;;;;;;8.05;3.45;;;3.60;99.90;;;;;;5102560;28;20079;-73
2021/01/13 09:27:06;;;;;;;8.25;3.17;;;3.20;99.90;;;;;;5100659;28;20551;-77
2021/01/13 09:29:47;;;;;;;11.07;3.45;;;3.50;99.90;;;;;;5104373;28;20135;-74
2021/01/13 09:32:15;;;;;;;8.77;4.10;;;3.50;99.90;;;;;;5105465;28;20127;-74
2021/01/13 09:34:43;;;;;;;13.57;3.92;;;4.10;99.90;;;;;;5100802;28;20765;-72
2021/01/13 09:37:10;;;;;;;13.32;4.55;;;4.40;99.90;;;;;;5089499;28;20117;-72
2021/01/13 09:39:38;;;;;;;14.23;3.63;;;4.30;99.90;;;;;;5093193;28;20146;-72
2021/01/13 09:42:07;;;;;;;9.02;3.17;;;5.60;99.30;;;;;;5092196;28;20871;-73
2021/01/13 09:44:35;;;;;;;10.98;3.55;;;6.00;96.70;;;;;;5092221;27;20067;-75
2021/01/13 09:47:25;;;;;;;11.25;5.15;;;5.00;97.80;;;;;;5096953;28;20063;-73
2021/01/13 09:49:57;;;;;;;11.82;4.10;;;4.90;98.40;;;;;;5098433;28;20054;-74
2021/01/13 09:52:37;;;;;;;9.55;3.83;;;4.60;99.30;;;;;;5089767;28;20059;-74
2021/01/13 09:55:04;;;;;;;8.03;3.87;;;4.70;99.90;;;;;;5091091;27;20113;-74
2021/01/13 09:57:33;;;;;;;10.20;4.15;;;4.40;99.90;;;;;;5089355;28;20849;-74
2021/01/13 10:00:10;;;;;;;14.00;3.72;;;5.20;98.40;;;;;;5091736;28;20047;-75
2021/01/13 10:02:37;;;;;;;8.50;3.75;;;5.20;98.80;;;;;;5091607;28;20048;-75
2021/01/13 10:05:06;;;;;;;9.35;4.20;;;4.60;99.70;;;;;;5092622;28;20051;-73
2021/01/13 10:07:34;;;;;;;9.63;4.20;;;5.20;98.20;;;;;;5090451;28;20544;-74
2021/01/13 10:10:06;;;;;;;9.63;3.88;;;5.10;98.40;;;;;;5092195;27;20189;-72
2021/01/13 10:12:37;;;;;;;9.60;3.63;;;4.80;99.10;;;;;;5088294;28;20078;-72
2021/01/13 10:15:06;;;;;;;13.43;4.13;;;5.10;98.50;;;;;;5091505;28;20056;-72
2021/01/13 10:17:34;;;;;;;11.30;3.58;;;5.10;98.50;;;;;;5091523;27;20055;-73
2021/01/13 10:20:34;;;;;;;7.65;3.95;;;5.10;98.60;;;;;;5092712;27;20047;-74
2021/01/13 10:23:01;;;;;;;9.23;4.25;;;5.20;98.70;;;;;;5066505;28;20486;-76
2021/01/13 10:25:34;;;;;;;7.40;3.83;;;5.10;98.70;;;;;;5088830;28;20048;-72
2021/01/13 10:28:01;;;;;;;7.20;3.55;;;5.60;98.40;;;;;;5093844;28;20043;-73
2021/01/13 10:30:28;;;;;;;12.32;4.20;;;5.20;98.50;;;;;;5090916;28;20043;-73
2021/01/13 10:32:56;;;;;;;10.82;3.63;;;5.10;99.00;;;;;;5088270;27;20075;-73
2021/01/13 10:35:36;;;;;;;5.75;2.92;;;5.30;98.50;;;;;;5091432;28;20869;-71
2021/01/13 10:38:03;;;;;;;8.23;3.45;;;5.70;97.20;;;;;;5088031;27;20121;-74
2021/01/13 10:40:30;;;;;;;8.45;3.75;;;6.70;95.70;;;;;;5091451;27;20072;-76
2021/01/13 10:42:56;;;;;;;15.25;3.38;;;7.80;93.10;;;;;;5089404;28;20079;-75
2021/01/13 10:45:24;;;;;;;11.75;4.07;;;8.70;90.20;;;;;;5090291;28;20080;-75
2021/01/13 10:47:59;;;;;;;13.85;3.40;;;7.90;90.30;;;;;;5088947;28;20158;-73
2021/01/13 10:50:30;;;;;;;10.93;3.40;;;6.90;91.90;;;;;;5091813;27;20384;-72
2021/01/13 10:53:00;;;;;;;8.38;3.40;;;7.10;92.70;;;;;;5090740;28;20067;-71
2021/01/13 10:55:29;;;;;;;12.10;3.60;;;7.30;92.00;;;;;;5092655;27;20106;-74
2021/01/13 10:57:56;;;;;;;10.77;3.33;;;7.30;92.20;;;;;;5090804;28;20714;-74
2021/01/13 11:00:30;;;;;;;10.50;3.20;;;7.10;92.40;;;;;;5091203;27;20051;-73
2021/01/13 11:02:58;;;;;;;6.97;3.40;;;6.70;93.10;;;;;;5088653;28;20142;-75
2021/01/13 11:05:25;;;;;;;9.07;3.00;;;6.60;93.20;;;;;;5094781;28;20052;-69
2021/01/13 11:07:53;;;;;;;11.27;3.05;;;6.30;93.20;;;;;;5089251;28;20056;-73
2021/01/13 11:10:22;;;;;;;9.13;3.15;;;6.20;93.70;;;;;;5090573;28;20075;-74
2021/01/13 11:13:02;;;;;;;9.88;3.35;;;6.10;93.90;;;;;;5085991;28;20036;-73
2021/01/13 11:15:28;;;;;;;6.93;2.67;;;5.80;93.50;;;;;;5089786;28;20076;-73
2021/01/13 11:17:56;;;;;;;11.27;3.30;;;5.70;93.90;;;;;;5084506;28;20101;-73
2021/01/13 11:20:28;;;;;;;8.68;2.85;;;5.60;93.90;;;;;;5088836;28;20124;-73
2021/01/13 11:22:58;;;;;;;8.13;2.95;;;5.70;94.10;;;;;;5087118;28;20066;-70
2021/01/13 11:25:50;;;;;;;8.65;2.63;;;5.70;94.10;;;;;;5089957;28;20048;-73
2021/01/13 11:28:17;;;;;;;7.38;3.00;;;5.90;94.00;;;;;;5084116;27;20877;-71
2021/01/13 11:30:50;;;;;;;4.40;2.13;;;5.80;93.60;;;;;;5088948;28;20609;-73
2021/01/13 11:33:17;;;;;;;8.45;2.45;;;5.70;93.80;;;;;;5088111;28;20066;-71
2021/01/13 11:35:47;;;;;;;8.80;2.95;;;5.70;93.80;;;;;;5086589;28;20056;-72
2021/01/13 11:38:35;;;;;;;7.50;2.80;;;5.80;93.70;;;;;;5088395;28;20055;-76
2021/01/13 11:41:50;;;;;;;12.90;2.58;;;5.60;93.20;;;;;;5089226;27;20071;-72
2021/01/13 11:44:23;;;;;;;3.78;1.58;;;5.80;93.00;;;;;;5089612;28;20112;-70
2021/01/13 11:46:55;;;;;;;7.53;2.22;;;5.70;92.20;;;;;;5090322;28;20139;-74
2021/01/13 11:49:34;;;;;;;7.60;2.22;;;5.70;92.50;;;;;;5091449;27;20039;-74
2021/01/13 11:52:07;;;;;;;7.47;2.22;;;5.90;92.60;;;;;;5089592;28;20093;-76
2021/01/13 11:54:34;;;;;;;4.60;1.92;;;5.80;92.60;;;;;;5094263;28;20063;-72
2021/01/13 11:57:21;;;;;;;7.85;2.47;;;6.00;92.70;;;;;;5089076;28;20591;-72
2021/01/13 11:59:48;;;;;;;11.05;2.58;;;6.00;92.40;;;;;;5088727;28;20709;-72
2021/01/13 12:02:30;;;;;;;8.60;2.20;;;6.00;92.00;;;;;;5089447;28;20552;-72
2021/01/13 12:04:57;;;;;;;6.82;2.65;;;6.20;92.50;;;;;;5086591;28;20047;-70
2021/01/13 12:07:23;;;;;;;9.07;2.30;;;6.30;91.80;;;;;;5088222;28;20451;-71
2021/01/13 12:10:13;;;;;;;8.38;1.80;;;6.30;91.60;;;;;;5088148;28;20044;-72
2021/01/13 12:12:40;;;;;;;10.88;2.60;;;6.20;90.90;;;;;;5089844;28;20054;-71
2021/01/13 12:15:10;;;;;;;8.98;2.15;;;6.20;91.40;;;;;;5093534;28;20106;-71
2021/01/13 12:17:50;;;;;;;5.45;1.75;;;6.10;90.60;;;;;;5096085;28;20093;-72
2021/01/13 12:20:33;;;;;;;8.70;1.77;;;6.10;90.40;;;;;;5088705;28;20127;-72
2021/01/13 12:23:16;;;;;;;5.70;2.20;;;6.20;90.50;;;;;;5089092;28;20302;-73
2021/01/13 12:25:44;;;;;;;9.75;2.28;;;5.90;90.90;;;;;;5088398;28;20052;-73
2021/01/13 12:28:10;;;;;;;6.22;2.47;;;6.00;91.00;;;;;;5085904;28;20131;-72
2021/01/13 12:30:59;;;;;;;4.38;1.70;;;6.00;90.90;;;;;;5092267;28;20055;-77
2021/01/13 12:33:25;;;;;;;7.28;2.08;;;5.90;90.90;;;;;;5088302;28;20146;-71
2021/01/13 12:35:52;;;;;;;6.53;2.03;;;5.90;91.20;;;;;;5097150;28;20101;-71
2021/01/13 12:38:36;;;;;;;7.97;2.13;;;5.90;90.80;;;;;;5103627;28;20128;-75
2021/01/13 12:41:05;;;;;;;6.18;1.98;;;6.00;90.70;;;;;;5099717;28;20112;-74
2021/01/13 12:43:36;;;;;;;6.60;2.43;;;6.20;91.30;;;;;;5101458;28;20486;-74
2021/01/13 12:46:03;;;;;;;3.15;1.02;;;6.00;91.40;;;;;;5104742;28;20071;-81
2021/01/13 12:48:29;;;;;;;6.60;1.95;;;5.90;91.30;;;;;;5103175;28;20461;-72
2021/01/13 12:50:55;;;;;;;6.55;2.15;;;6.00;91.70;;;;;;5100929;28;20079;-72
2021/01/13 12:53:22;;;;;;;6.93;1.80;;;5.90;91.80;;;;;;5103454;27;20052;-71
2021/01/13 12:55:49;;;;;;;6.50;2.28;;;5.90;91.80;;;;;;5103469;28;20055;-71
2021/01/13 12:58:15;;;;;;;7.63;2.10;;;6.10;91.80;;;;;;5105312;28;20047;-71
2021/01/13 13:00:41;;;;;;;7.55;2.28;;;6.20;91.70;;;;;;5101571;28;20043;-70
2021/01/13 13:03:08;;;;;;;4.35;1.95;;;6.20;91.60;;;;;;5104714;28;20077;-71
2021/01/13 13:05:34;;;;;;;3.17;1.85;;;6.00;91.50;;;;;;5101368;28;20077;-71
2021/01/13 13:08:01;;;;;;;9.60;2.05;;;6.00;91.60;;;;;;5104323;28;20093;-71
2021/01/13 13:10:27;;;;;;;6.30;2.13;;;5.90;91.60;;;;;;5096144;28;20490;-70
2021/01/13 13:12:54;;;;;;;8.90;2.30;;;5.90;91.70;;;;;;5104200;28;20507;-71
2021/01/13 13:15:20;;;;;;;4.63;2.03;;;6.00;91.90;;;;;;5104143;28;20058;-71
2021/01/13 13:17:47;;;;;;;7.13;1.63;;;5.90;91.30;;;;;;5105002;28;20079;-71
2021/01/13 13:20:14;;;;;;;5.22;1.90;;;6.00;91.10;;;;;;5102306;28;20441;-72
2021/01/13 13:22:40;;;;;;;5.50;1.98;;;5.90;91.30;;;;;;5102446;28;20055;-71